KFQD

Rutherford Co - Marchman Field Airport

Rutherfordton, North Carolina, USA
METAR KFQD 151840Z AUTO 18012G18KT 10SM CLR 15/06 A2982 RMK AO2
Observed Flight Rules
Feb-15 @ 18:40 UTC (30 minutes ago) Visual Flight Rules
Wind Visibility Clouds
180° at 12 knots
 Gusting to 18 knots
10 miles
  • Clear skies
Temperatures Readings
Current 15°C / 59°F
Dewpoint 6°C / 43°F
Humidity 55%
Altimeter 29.82" Hg
Pressure 1009.82 hPa
Elevation 329
METAR KFQD 151840Z AUTO 18012G18KT 10SM CLR 15/06 A2982 RMK AO2
Observed Flight Rules
Feb-15 @ 18:40 UTC
(30 minutes ago)
VFR
Wind Visibility
180° at 12 knots
 Gusting to 18 knots
10 miles
Clouds
  • Clear skies
Temperature Dewpoint
15°C / 59°F 6°C / 43°F
Humidity Altimeter Pressure
55% 29.82" Hg 1009.82 hPa